sensor_id;sensor_type;location;lat;lon;timestamp;temperature;humidity
21570;DHT22;57598;50.888;4.746;2023-04-02T07:18:39;7.20;99.90
21570;DHT22;57598;50.888;4.746;2023-04-02T07:21:06;7.20;99.90
21570;DHT22;57598;50.888;4.746;2023-04-02T07:23:33;7.20;99.90
21570;DHT22;57598;50.888;4.746;2023-04-02T07:26:00;7.20;99.90
21570;DHT22;57598;50.888;4.746;2023-04-02T07:28:28;7.20;99.90
21570;DHT22;57598;50.888;4.746;2023-04-02T07:30:55;7.10;99.90
21570;DHT22;57598;50.888;4.746;2023-04-02T07:33:27;7.10;99.90
21570;DHT22;57598;50.888;4.746;2023-04-02T07:35:57;7.10;99.90
21570;DHT22;57598;50.888;4.746;2023-04-02T07:38:24;7.10;99.90
21570;DHT22;57598;50.888;4.746;2023-04-02T07:40:52;7.10;99.90
21570;DHT22;57598;50.888;4.746;2023-04-02T07:43:19;7.10;99.90
21570;DHT22;57598;50.888;4.746;2023-04-02T07:45:57;7.10;99.90
21570;DHT22;57598;50.888;4.746;2023-04-02T07:48:24;7.10;99.90
21570;DHT22;57598;50.888;4.746;2023-04-02T07:50:51;7.20;99.90
21570;DHT22;57598;50.888;4.746;2023-04-02T07:53:27;7.10;99.90
21570;DHT22;57598;50.888;4.746;2023-04-02T07:55:55;7.10;99.90
21570;DHT22;57598;50.888;4.746;2023-04-02T07:58:22;7.10;99.90
21570;DHT22;57598;50.888;4.746;2023-04-02T08:00:50;7.10;99.90
21570;DHT22;57598;50.888;4.746;2023-04-02T08:03:17;7.00;99.90
21570;DHT22;57598;50.888;4.746;2023-04-02T08:05:49;7.10;99.90
21570;DHT22;57598;50.888;4.746;2023-04-02T08:08:17;7.00;99.90
21570;DHT22;57598;50.888;4.746;2023-04-02T08:10:46;7.00;99.90
21570;DHT22;57598;50.888;4.746;2023-04-02T08:13:15;7.00;99.90
21570;DHT22;57598;50.888;4.746;2023-04-02T08:15:42;7.00;99.90
21570;DHT22;57598;50.888;4.746;2023-04-02T08:18:11;7.10;99.90
21570;DHT22;57598;50.888;4.746;2023-04-02T08:20:38;7.20;99.90
21570;DHT22;57598;50.888;4.746;2023-04-02T08:23:12;7.20;99.90
21570;DHT22;57598;50.888;4.746;2023-04-02T08:25:41;7.30;99.90
21570;DHT22;57598;50.888;4.746;2023-04-02T08:28:09;7.30;99.90
21570;DHT22;57598;50.888;4.746;2023-04-02T08:30:37;7.30;99.90
21570;DHT22;57598;50.888;4.746;2023-04-02T08:33:04;7.30;99.90
21570;DHT22;57598;50.888;4.746;2023-04-02T08:35:32;7.20;99.90
21570;DHT22;57598;50.888;4.746;2023-04-02T08:37:59;7.20;99.90
21570;DHT22;57598;50.888;4.746;2023-04-02T08:40:30;7.20;99.90
21570;DHT22;57598;50.888;4.746;2023-04-02T08:43:16;7.20;99.90
21570;DHT22;57598;50.888;4.746;2023-04-02T08:45:56;7.10;99.90
21570;DHT22;57598;50.888;4.746;2023-04-02T08:48:27;7.20;99.90
21570;DHT22;57598;50.888;4.746;2023-04-02T08:51:04;7.20;99.90
21570;DHT22;57598;50.888;4.746;2023-04-02T08:53:36;7.20;99.90
21570;DHT22;57598;50.888;4.746;2023-04-02T08:56:09;7.20;99.90
21570;DHT22;57598;50.888;4.746;2023-04-02T08:58:47;7.30;99.90
21570;DHT22;57598;50.888;4.746;2023-04-02T09:01:23;7.30;99.90
21570;DHT22;57598;50.888;4.746;2023-04-02T09:03:55;7.30;99.90
21570;DHT22;57598;50.888;4.746;2023-04-02T09:06:24;7.30;99.90
21570;DHT22;57598;50.888;4.746;2023-04-02T09:08:53;7.40;99.90
21570;DHT22;57598;50.888;4.746;2023-04-02T09:11:23;7.30;99.90
21570;DHT22;57598;50.888;4.746;2023-04-02T09:13:55;7.30;99.90
21570;DHT22;57598;50.888;4.746;2023-04-02T09:16:39;7.30;99.90
21570;DHT22;57598;50.888;4.746;2023-04-02T09:19:17;7.40;99.90
21570;DHT22;57598;50.888;4.746;2023-04-02T09:21:52;7.20;99.90
21570;DHT22;57598;50.888;4.746;2023-04-02T09:24:21;7.30;99.90
21570;DHT22;57598;50.888;4.746;2023-04-02T09:26:48;7.30;99.90
21570;DHT22;57598;50.888;4.746;2023-04-02T09:32:34;7.10;99.90
21570;DHT22;57598;50.888;4.746;2023-04-02T09:35:11;7.10;99.90
21570;DHT22;57598;50.888;4.746;2023-04-02T09:37:41;7.10;99.90
21570;DHT22;57598;50.888;4.746;2023-04-02T09:40:22;7.10;99.90
21570;DHT22;57598;50.888;4.746;2023-04-02T09:43:02;7.10;99.90
21570;DHT22;57598;50.888;4.746;2023-04-02T09:45:31;7.20;99.90
21570;DHT22;57598;50.888;4.746;2023-04-02T09:47:58;7.20;99.90
21570;DHT22;57598;50.888;4.746;2023-04-02T09:50:27;7.10;99.90
21570;DHT22;57598;50.888;4.746;2023-04-02T09:52:54;7.10;99.90
21570;DHT22;57598;50.888;4.746;2023-04-02T09:55:23;7.20;99.90
21570;DHT22;57598;50.888;4.746;2023-04-02T09:58:09;7.30;99.90
21570;DHT22;57598;50.888;4.746;2023-04-02T10:00:39;7.20;99.90
21570;DHT22;57598;50.888;4.746;2023-04-02T10:03:19;7.30;99.90
21570;DHT22;57598;50.888;4.746;2023-04-02T10:05:47;7.50;99.90
21570;DHT22;57598;50.888;4.746;2023-04-02T10:08:18;7.60;99.90
21570;DHT22;57598;50.888;4.746;2023-04-02T10:10:48;7.60;99.90
21570;DHT22;57598;50.888;4.746;2023-04-02T10:13:21;7.60;99.90
21570;DHT22;57598;50.888;4.746;2023-04-02T10:15:54;7.50;99.90
21570;DHT22;57598;50.888;4.746;2023-04-02T10:18:32;7.60;99.90
21570;DHT22;57598;50.888;4.746;2023-04-02T10:21:03;7.60;99.90
21570;DHT22;57598;50.888;4.746;2023-04-02T10:23:32;7.70;99.90
21570;DHT22;57598;50.888;4.746;2023-04-02T10:26:23;7.70;99.90
21570;DHT22;57598;50.888;4.746;2023-04-02T10:29:07;7.80;99.90
21570;DHT22;57598;50.888;4.746;2023-04-02T10:31:46;7.80;99.90
21570;DHT22;57598;50.888;4.746;2023-04-02T10:34:22;7.90;99.90
21570;DHT22;57598;50.888;4.746;2023-04-02T10:36:53;7.90;99.90
21570;DHT22;57598;50.888;4.746;2023-04-02T10:39:27;8.00;99.90
21570;DHT22;57598;50.888;4.746;2023-04-02T10:42:04;8.00;99.90
21570;DHT22;57598;50.888;4.746;2023-04-02T10:44:43;8.00;99.90
21570;DHT22;57598;50.888;4.746;2023-04-02T10:47:24;8.00;99.90
21570;DHT22;57598;50.888;4.746;2023-04-02T10:50:03;8.10;99.90
21570;DHT22;57598;50.888;4.746;2023-04-02T10:52:38;8.10;99.90
21570;DHT22;57598;50.888;4.746;2023-04-02T10:55:15;8.10;99.90
21570;DHT22;57598;50.888;4.746;2023-04-02T10:57:44;8.00;99.90
21570;DHT22;57598;50.888;4.746;2023-04-02T11:00:20;7.90;99.90
21570;DHT22;57598;50.888;4.746;2023-04-02T11:02:55;7.90;99.90
21570;DHT22;57598;50.888;4.746;2023-04-02T11:05:30;8.00;99.90
21570;DHT22;57598;50.888;4.746;2023-04-02T11:08:03;8.00;99.90
21570;DHT22;57598;50.888;4.746;2023-04-02T11:10:34;8.10;99.90
21570;DHT22;57598;50.888;4.746;2023-04-02T11:13:10;8.00;99.90
21570;DHT22;57598;50.888;4.746;2023-04-02T11:15:39;7.70;99.90
21570;DHT22;57598;50.888;4.746;2023-04-02T11:18:20;7.70;99.90
21570;DHT22;57598;50.888;4.746;2023-04-02T11:20:59;7.90;99.90
21570;DHT22;57598;50.888;4.746;2023-04-02T11:23:28;8.00;99.90
21570;DHT22;57598;50.888;4.746;2023-04-02T11:26:36;8.00;99.90
21570;DHT22;57598;50.888;4.746;2023-04-02T11:29:14;8.10;99.90
21570;DHT22;57598;50.888;4.746;2023-04-02T11:31:43;8.10;99.90
21570;DHT22;57598;50.888;4.746;2023-04-02T11:34:14;8.20;99.90
21570;DHT22;57598;50.888;4.746;2023-04-02T11:36:59;8.20;99.90
21570;DHT22;57598;50.888;4.746;2023-04-02T11:39:50;8.20;99.90
21570;DHT22;57598;50.888;4.746;2023-04-02T11:42:31;8.30;99.90
21570;DHT22;57598;50.888;4.746;2023-04-02T11:45:00;8.40;99.90
21570;DHT22;57598;50.888;4.746;2023-04-02T11:50:49;8.30;99.90
21570;DHT22;57598;50.888;4.746;2023-04-02T11:53:21;8.30;99.90
21570;DHT22;57598;50.888;4.746;2023-04-02T11:56:04;8.40;99.90
21570;DHT22;57598;50.888;4.746;2023-04-02T12:01:32;8.40;99.90
21570;DHT22;57598;50.888;4.746;2023-04-02T12:07:26;8.20;99.90
21570;DHT22;57598;50.888;4.746;2023-04-02T12:10:02;8.30;99.90
21570;DHT22;57598;50.888;4.746;2023-04-02T12:12:33;8.10;99.90
21570;DHT22;57598;50.888;4.746;2023-04-02T12:15:05;8.20;99.90
21570;DHT22;57598;50.888;4.746;2023-04-02T12:17:36;8.40;99.90
21570;DHT22;57598;50.888;4.746;2023-04-02T12:20:17;8.50;99.90
21570;DHT22;57598;50.888;4.746;2023-04-02T12:22:49;8.80;99.90
21570;DHT22;57598;50.888;4.746;2023-04-02T12:25:24;8.70;99.90
21570;DHT22;57598;50.888;4.746;2023-04-02T12:28:13;8.70;99.90
21570;DHT22;57598;50.888;4.746;2023-04-02T12:30:44;8.80;99.90
21570;DHT22;57598;50.888;4.746;2023-04-02T12:33:16;8.80;99.90
21570;DHT22;57598;50.888;4.746;2023-04-02T12:35:54;8.70;99.90
21570;DHT22;57598;50.888;4.746;2023-04-02T12:38:25;8.60;99.90
21570;DHT22;57598;50.888;4.746;2023-04-02T12:40:54;8.50;99.90
21570;DHT22;57598;50.888;4.746;2023-04-02T12:43:23;8.40;99.90
21570;DHT22;57598;50.888;4.746;2023-04-02T12:45:52;8.40;99.90
21570;DHT22;57598;50.888;4.746;2023-04-02T12:48:20;8.50;99.90
21570;DHT22;57598;50.888;4.746;2023-04-02T12:50:47;8.40;99.90
21570;DHT22;57598;50.888;4.746;2023-04-02T12:53:19;8.50;99.90
21570;DHT22;57598;50.888;4.746;2023-04-02T12:55:50;8.50;99.90
21570;DHT22;57598;50.888;4.746;2023-04-02T12:58:27;8.50;99.90
21570;DHT22;57598;50.888;4.746;2023-04-02T13:01:12;8.60;99.90
21570;DHT22;57598;50.888;4.746;2023-04-02T13:03:39;8.60;99.90
21570;DHT22;57598;50.888;4.746;2023-04-02T13:06:23;8.60;99.90
21570;DHT22;57598;50.888;4.746;2023-04-02T13:08:52;8.40;99.90
21570;DHT22;57598;50.888;4.746;2023-04-02T13:11:21;8.50;99.90
21570;DHT22;57598;50.888;4.746;2023-04-02T13:13:49;8.40;99.90
21570;DHT22;57598;50.888;4.746;2023-04-02T13:16:27;8.40;99.90
21570;DHT22;57598;50.888;4.746;2023-04-02T13:19:22;8.50;99.90
21570;DHT22;57598;50.888;4.746;2023-04-02T13:21:50;8.60;99.90
21570;DHT22;57598;50.888;4.746;2023-04-02T13:24:20;8.50;99.90
21570;DHT22;57598;50.888;4.746;2023-04-02T13:26:49;8.70;99.90
21570;DHT22;57598;50.888;4.746;2023-04-02T13:29:21;8.80;99.90
21570;DHT22;57598;50.888;4.746;2023-04-02T13:31:48;8.70;99.90
21570;DHT22;57598;50.888;4.746;2023-04-02T13:34:16;8.60;99.90
21570;DHT22;57598;50.888;4.746;2023-04-02T13:36:43;8.50;99.90
21570;DHT22;57598;50.888;4.746;2023-04-02T13:39:11;8.50;99.90
21570;DHT22;57598;50.888;4.746;2023-04-02T13:41:40;8.50;99.90
21570;DHT22;57598;50.888;4.746;2023-04-02T13:44:18;8.60;99.90
21570;DHT22;57598;50.888;4.746;2023-04-02T13:46:45;8.80;99.90
21570;DHT22;57598;50.888;4.746;2023-04-02T13:49:13;8.80;99.90
21570;DHT22;57598;50.888;4.746;2023-04-02T13:51:42;8.80;99.90
21570;DHT22;57598;50.888;4.746;2023-04-02T13:54:15;8.70;99.90
21570;DHT22;57598;50.888;4.746;2023-04-02T13:56:44;8.70;99.90
21570;DHT22;57598;50.888;4.746;2023-04-02T13:59:11;8.40;99.90
21570;DHT22;57598;50.888;4.746;2023-04-02T14:01:40;8.40;99.90
21570;DHT22;57598;50.888;4.746;2023-04-02T14:04:14;8.50;99.90
21570;DHT22;57598;50.888;4.746;2023-04-02T14:07:15;8.40;99.90
21570;DHT22;57598;50.888;4.746;2023-04-02T14:09:57;8.50;99.90
21570;DHT22;57598;50.888;4.746;2023-04-02T14:12:36;8.60;99.90
21570;DHT22;57598;50.888;4.746;2023-04-02T14:15:29;8.60;99.90
21570;DHT22;57598;50.888;4.746;2023-04-02T14:18:19;8.70;99.90
21570;DHT22;57598;50.888;4.746;2023-04-02T14:20:54;8.70;99.90
21570;DHT22;57598;50.888;4.746;2023-04-02T14:23:41;8.70;99.90
21570;DHT22;57598;50.888;4.746;2023-04-02T14:26:19;8.60;99.90
21570;DHT22;57598;50.888;4.746;2023-04-02T14:28:56;8.70;99.90
21570;DHT22;57598;50.888;4.746;2023-04-02T14:31:29;8.70;99.90
21570;DHT22;57598;50.888;4.746;2023-04-02T14:34:05;8.70;99.90
21570;DHT22;57598;50.888;4.746;2023-04-02T14:36:39;8.50;99.90
21570;DHT22;57598;50.888;4.746;2023-04-02T14:39:16;8.40;99.90
21570;DHT22;57598;50.888;4.746;2023-04-02T14:41:51;8.50;99.90
21570;DHT22;57598;50.888;4.746;2023-04-02T14:44:24;8.40;99.90
21570;DHT22;57598;50.888;4.746;2023-04-02T14:46:59;8.40;99.90
21570;DHT22;57598;50.888;4.746;2023-04-02T14:49:34;8.40;99.90
21570;DHT22;57598;50.888;4.746;2023-04-02T14:52:09;8.50;99.90
21570;DHT22;57598;50.888;4.746;2023-04-02T14:54:39;8.40;99.90
21570;DHT22;57598;50.888;4.746;2023-04-02T14:57:16;8.40;99.90
21570;DHT22;57598;50.888;4.746;2023-04-02T14:59:53;8.40;99.90
21570;DHT22;57598;50.888;4.746;2023-04-02T15:02:33;8.50;99.90
21570;DHT22;57598;50.888;4.746;2023-04-02T15:05:13;8.30;99.90
21570;DHT22;57598;50.888;4.746;2023-04-02T15:07:45;8.40;99.90
21570;DHT22;57598;50.888;4.746;2023-04-02T15:10:21;8.50;99.90
21570;DHT22;57598;50.888;4.746;2023-04-02T15:12:50;8.50;99.90
21570;DHT22;57598;50.888;4.746;2023-04-02T15:15:23;8.50;99.90
21570;DHT22;57598;50.888;4.746;2023-04-02T15:17:57;8.40;99.90
21570;DHT22;57598;50.888;4.746;2023-04-02T15:20:33;8.20;99.90
21570;DHT22;57598;50.888;4.746;2023-04-02T15:23:06;8.30;99.90
21570;DHT22;57598;50.888;4.746;2023-04-02T15:25:43;8.40;99.90
21570;DHT22;57598;50.888;4.746;2023-04-02T15:28:19;8.50;99.90
21570;DHT22;57598;50.888;4.746;2023-04-02T15:30:51;8.60;99.90
21570;DHT22;57598;50.888;4.746;2023-04-02T15:33:40;8.70;99.90
21570;DHT22;57598;50.888;4.746;2023-04-02T15:36:30;8.70;99.90
21570;DHT22;57598;50.888;4.746;2023-04-02T15:39:06;8.60;99.90
21570;DHT22;57598;50.888;4.746;2023-04-02T15:41:39;8.50;99.90
21570;DHT22;57598;50.888;4.746;2023-04-02T15:44:11;8.50;99.90
21570;DHT22;57598;50.888;4.746;2023-04-02T15:46:45;8.60;99.90
21570;DHT22;57598;50.888;4.746;2023-04-02T15:49:32;8.70;99.90
21570;DHT22;57598;50.888;4.746;2023-04-02T15:52:08;8.70;99.90
21570;DHT22;57598;50.888;4.746;2023-04-02T15:57:49;8.40;99.90
21570;DHT22;57598;50.888;4.746;2023-04-02T16:00:24;8.30;99.90
21570;DHT22;57598;50.888;4.746;2023-04-02T16:03:25;8.30;99.90
21570;DHT22;57598;50.888;4.746;2023-04-02T16:06:10;8.40;99.90
21570;DHT22;57598;50.888;4.746;2023-04-02T16:11:32;8.20;99.90
21570;DHT22;57598;50.888;4.746;2023-04-02T16:14:19;8.20;99.90
21570;DHT22;57598;50.888;4.746;2023-04-02T16:16:49;8.30;99.90
21570;DHT22;57598;50.888;4.746;2023-04-02T16:19:24;8.20;99.90
21570;DHT22;57598;50.888;4.746;2023-04-02T16:21:57;8.30;99.90
21570;DHT22;57598;50.888;4.746;2023-04-02T16:24:28;8.40;99.90
21570;DHT22;57598;50.888;4.746;2023-04-02T16:26:58;8.50;99.90
21570;DHT22;57598;50.888;4.746;2023-04-02T16:29:39;8.50;99.90
21570;DHT22;57598;50.888;4.746;2023-04-02T16:32:32;8.40;99.90
21570;DHT22;57598;50.888;4.746;2023-04-02T16:35:05;8.40;99.90
21570;DHT22;57598;50.888;4.746;2023-04-02T16:37:39;8.40;99.90
21570;DHT22;57598;50.888;4.746;2023-04-02T16:40:27;8.40;99.90
21570;DHT22;57598;50.888;4.746;2023-04-02T16:42:59;8.50;99.90
21570;DHT22;57598;50.888;4.746;2023-04-02T16:45:36;8.50;99.90
21570;DHT22;57598;50.888;4.746;2023-04-02T16:48:11;8.60;99.90
21570;DHT22;57598;50.888;4.746;2023-04-02T16:50:46;8.50;99.90
21570;DHT22;57598;50.888;4.746;2023-04-02T16:53:24;8.50;99.90
21570;DHT22;57598;50.888;4.746;2023-04-02T16:56:17;8.50;99.90
21570;DHT22;57598;50.888;4.746;2023-04-02T16:58:52;8.50;99.90
21570;DHT22;57598;50.888;4.746;2023-04-02T17:01:27;8.40;99.90
21570;DHT22;57598;50.888;4.746;2023-04-02T17:04:08;8.40;99.90
21570;DHT22;57598;50.888;4.746;2023-04-02T17:06:40;8.30;99.90
21570;DHT22;57598;50.888;4.746;2023-04-02T17:09:14;8.40;99.90
21570;DHT22;57598;50.888;4.746;2023-04-02T17:11:47;8.40;99.90
21570;DHT22;57598;50.888;4.746;2023-04-02T17:14:22;8.30;99.90
21570;DHT22;57598;50.888;4.746;2023-04-02T17:16:51;8.40;99.90
21570;DHT22;57598;50.888;4.746;2023-04-02T17:19:23;8.40;99.90
21570;DHT22;57598;50.888;4.746;2023-04-02T17:21:56;8.40;99.90
21570;DHT22;57598;50.888;4.746;2023-04-02T17:24:26;8.40;99.90
21570;DHT22;57598;50.888;4.746;2023-04-02T17:26:57;8.40;99.90
21570;DHT22;57598;50.888;4.746;2023-04-02T17:29:31;8.30;99.90
21570;DHT22;57598;50.888;4.746;2023-04-02T17:32:01;8.20;99.90
21570;DHT22;57598;50.888;4.746;2023-04-02T17:34:29;8.20;99.90
21570;DHT22;57598;50.888;4.746;2023-04-02T17:37:07;8.20;99.90
21570;DHT22;57598;50.888;4.746;2023-04-02T17:39:42;8.10;99.90
21570;DHT22;57598;50.888;4.746;2023-04-02T17:42:22;8.10;99.90
21570;DHT22;57598;50.888;4.746;2023-04-02T17:45:00;8.00;99.90
21570;DHT22;57598;50.888;4.746;2023-04-02T17:47:33;7.90;99.90
21570;DHT22;57598;50.888;4.746;2023-04-02T17:53:36;7.70;99.90
21570;DHT22;57598;50.888;4.746;2023-04-02T17:56:17;7.70;99.90
21570;DHT22;57598;50.888;4.746;2023-04-02T17:59:08;7.60;99.90
21570;DHT22;57598;50.888;4.746;2023-04-02T18:01:44;7.50;99.90
21570;DHT22;57598;50.888;4.746;2023-04-02T18:04:26;7.40;99.90
21570;DHT22;57598;50.888;4.746;2023-04-02T18:07:12;7.30;99.90
21570;DHT22;57598;50.888;4.746;2023-04-02T18:09:46;7.30;99.90
21570;DHT22;57598;50.888;4.746;2023-04-02T18:12:26;7.20;99.90
21570;DHT22;57598;50.888;4.746;2023-04-02T18:15:07;7.20;99.90
21570;DHT22;57598;50.888;4.746;2023-04-02T18:17:45;7.10;99.90
21570;DHT22;57598;50.888;4.746;2023-04-02T18:20:27;7.00;99.90
21570;DHT22;57598;50.888;4.746;2023-04-02T18:23:01;7.00;99.90
21570;DHT22;57598;50.888;4.746;2023-04-02T18:25:40;6.80;99.90
21570;DHT22;57598;50.888;4.746;2023-04-02T18:28:30;6.80;99.90
21570;DHT22;57598;50.888;4.746;2023-04-02T18:31:04;6.70;99.90
21570;DHT22;57598;50.888;4.746;2023-04-02T18:33:49;6.70;99.90
21570;DHT22;57598;50.888;4.746;2023-04-02T18:36:22;6.70;99.90
21570;DHT22;57598;50.888;4.746;2023-04-02T18:38:56;6.60;99.90
21570;DHT22;57598;50.888;4.746;2023-04-02T18:41:40;6.60;99.90
21570;DHT22;57598;50.888;4.746;2023-04-02T18:44:19;6.60;99.90
21570;DHT22;57598;50.888;4.746;2023-04-02T18:46:53;6.60;99.90
21570;DHT22;57598;50.888;4.746;2023-04-02T18:49:26;6.60;99.90
21570;DHT22;57598;50.888;4.746;2023-04-02T18:51:57;6.50;99.90
21570;DHT22;57598;50.888;4.746;2023-04-02T18:54:30;6.50;99.90
21570;DHT22;57598;50.888;4.746;2023-04-02T18:56:58;6.50;99.90
21570;DHT22;57598;50.888;4.746;2023-04-02T18:59:36;6.50;99.90
21570;DHT22;57598;50.888;4.746;2023-04-02T19:02:24;6.40;99.90
21570;DHT22;57598;50.888;4.746;2023-04-02T19:05:01;6.40;99.90
21570;DHT22;57598;50.888;4.746;2023-04-02T19:07:32;6.40;99.90
21570;DHT22;57598;50.888;4.746;2023-04-02T19:10:06;6.40;99.90
21570;DHT22;57598;50.888;4.746;2023-04-02T19:12:34;6.30;99.90
21570;DHT22;57598;50.888;4.746;2023-04-02T19:15:13;6.30;99.90
21570;DHT22;57598;50.888;4.746;2023-04-02T19:17:45;6.20;99.90
21570;DHT22;57598;50.888;4.746;2023-04-02T19:20:25;6.30;99.90
21570;DHT22;57598;50.888;4.746;2023-04-02T19:23:01;6.20;99.90
21570;DHT22;57598;50.888;4.746;2023-04-02T19:25:38;6.20;99.90
21570;DHT22;57598;50.888;4.746;2023-04-02T19:28:12;6.10;99.90
21570;DHT22;57598;50.888;4.746;2023-04-02T19:33:46;6.20;99.90
21570;DHT22;57598;50.888;4.746;2023-04-02T19:36:31;6.20;99.90
21570;DHT22;57598;50.888;4.746;2023-04-02T19:39:30;6.30;99.90
21570;DHT22;57598;50.888;4.746;2023-04-02T19:42:04;6.30;99.90
21570;DHT22;57598;50.888;4.746;2023-04-02T19:44:43;6.20;99.90
21570;DHT22;57598;50.888;4.746;2023-04-02T19:47:11;6.20;99.90
21570;DHT22;57598;50.888;4.746;2023-04-02T19:49:40;6.20;99.90
21570;DHT22;57598;50.888;4.746;2023-04-02T19:52:07;6.10;99.90
21570;DHT22;57598;50.888;4.746;2023-04-02T19:54:34;6.20;99.90
21570;DHT22;57598;50.888;4.746;2023-04-02T19:57:01;6.10;99.90
21570;DHT22;57598;50.888;4.746;2023-04-02T19:59:28;6.10;99.90
21570;DHT22;57598;50.888;4.746;2023-04-02T20:01:55;6.20;99.90
21570;DHT22;57598;50.888;4.746;2023-04-02T20:04:24;6.10;99.90
21570;DHT22;57598;50.888;4.746;2023-04-02T20:06:52;6.00;99.90
21570;DHT22;57598;50.888;4.746;2023-04-02T20:09:20;6.00;99.90
21570;DHT22;57598;50.888;4.746;2023-04-02T20:11:47;5.90;99.90
21570;DHT22;57598;50.888;4.746;2023-04-02T20:14:14;5.80;99.90
21570;DHT22;57598;50.888;4.746;2023-04-02T20:16:41;5.70;99.90
21570;DHT22;57598;50.888;4.746;2023-04-02T20:19:08;5.70;99.90
21570;DHT22;57598;50.888;4.746;2023-04-02T20:21:35;5.80;99.90
21570;DHT22;57598;50.888;4.746;2023-04-02T20:24:05;5.70;99.90
21570;DHT22;57598;50.888;4.746;2023-04-02T20:26:33;5.70;99.90
21570;DHT22;57598;50.888;4.746;2023-04-02T20:29:00;5.70;99.90
21570;DHT22;57598;50.888;4.746;2023-04-02T20:31:27;5.70;99.90
21570;DHT22;57598;50.888;4.746;2023-04-02T20:33:55;5.60;99.90
21570;DHT22;57598;50.888;4.746;2023-04-02T20:36:22;5.60;99.90
21570;DHT22;57598;50.888;4.746;2023-04-02T20:38:49;5.60;99.90
21570;DHT22;57598;50.888;4.746;2023-04-02T20:41:18;5.60;99.90
21570;DHT22;57598;50.888;4.746;2023-04-02T20:43:46;5.50;99.90
21570;DHT22;57598;50.888;4.746;2023-04-02T20:46:15;5.50;99.90
21570;DHT22;57598;50.888;4.746;2023-04-02T20:48:42;5.40;99.90
21570;DHT22;57598;50.888;4.746;2023-04-02T20:51:12;5.40;99.90
21570;DHT22;57598;50.888;4.746;2023-04-02T20:53:40;5.40;99.90
21570;DHT22;57598;50.888;4.746;2023-04-02T20:56:09;5.30;99.90
21570;DHT22;57598;50.888;4.746;2023-04-02T20:58:38;5.20;99.90
21570;DHT22;57598;50.888;4.746;2023-04-02T21:01:10;5.10;99.90
21570;DHT22;57598;50.888;4.746;2023-04-02T21:03:37;5.10;99.90
21570;DHT22;57598;50.888;4.746;2023-04-02T21:06:05;5.10;99.90
21570;DHT22;57598;50.888;4.746;2023-04-02T21:08:33;5.10;99.90
21570;DHT22;57598;50.888;4.746;2023-04-02T21:11:03;5.10;99.90
21570;DHT22;57598;50.888;4.746;2023-04-02T21:13:31;5.00;99.90
21570;DHT22;57598;50.888;4.746;2023-04-02T21:16:02;4.90;99.90
21570;DHT22;57598;50.888;4.746;2023-04-02T21:18:30;4.90;99.90
21570;DHT22;57598;50.888;4.746;2023-04-02T21:20:58;4.90;99.90
21570;DHT22;57598;50.888;4.746;2023-04-02T21:23:26;4.90;99.90
21570;DHT22;57598;50.888;4.746;2023-04-02T21:25:57;4.80;99.90
21570;DHT22;57598;50.888;4.746;2023-04-02T21:28:26;4.80;99.90
21570;DHT22;57598;50.888;4.746;2023-04-02T21:31:02;4.70;99.90
21570;DHT22;57598;50.888;4.746;2023-04-02T21:33:30;4.60;99.90
21570;DHT22;57598;50.888;4.746;2023-04-02T21:36:05;4.50;99.90
21570;DHT22;57598;50.888;4.746;2023-04-02T21:38:32;4.50;99.90
21570;DHT22;57598;50.888;4.746;2023-04-02T21:41:09;4.40;99.90
21570;DHT22;57598;50.888;4.746;2023-04-02T21:43:36;4.40;99.90
21570;DHT22;57598;50.888;4.746;2023-04-02T21:46:04;4.40;99.90
21570;DHT22;57598;50.888;4.746;2023-04-02T21:48:31;4.40;99.90
21570;DHT22;57598;50.888;4.746;2023-04-02T21:51:06;4.40;99.90
21570;DHT22;57598;50.888;4.746;2023-04-02T21:53:33;4.40;99.90
21570;DHT22;57598;50.888;4.746;2023-04-02T21:56:01;4.30;99.90
21570;DHT22;57598;50.888;4.746;2023-04-02T21:58:28;4.30;99.90
21570;DHT22;57598;50.888;4.746;2023-04-02T22:00:55;4.30;99.90
21570;DHT22;57598;50.888;4.746;2023-04-02T22:03:25;4.20;99.90
21570;DHT22;57598;50.888;4.746;2023-04-02T22:06:03;4.20;99.90
21570;DHT22;57598;50.888;4.746;2023-04-02T22:08:31;4.10;99.90
21570;DHT22;57598;50.888;4.746;2023-04-02T22:11:04;4.20;99.90
21570;DHT22;57598;50.888;4.746;2023-04-02T22:13:31;4.10;99.90
21570;DHT22;57598;50.888;4.746;2023-04-02T22:16:00;4.10;99.90
21570;DHT22;57598;50.888;4.746;2023-04-02T22:18:29;4.10;99.90
21570;DHT22;57598;50.888;4.746;2023-04-02T22:20:57;4.00;99.90
21570;DHT22;57598;50.888;4.746;2023-04-02T22:23:25;4.10;99.90
21570;DHT22;57598;50.888;4.746;2023-04-02T22:25:54;4.00;99.90
21570;DHT22;57598;50.888;4.746;2023-04-02T22:28:22;4.00;99.90
21570;DHT22;57598;50.888;4.746;2023-04-02T22:30:49;4.00;99.90
21570;DHT22;57598;50.888;4.746;2023-04-02T22:33:17;3.90;99.90
21570;DHT22;57598;50.888;4.746;2023-04-02T22:35:48;3.90;99.90
21570;DHT22;57598;50.888;4.746;2023-04-02T22:38:15;3.90;99.90
21570;DHT22;57598;50.888;4.746;2023-04-02T22:40:42;3.80;99.90
21570;DHT22;57598;50.888;4.746;2023-04-02T22:43:09;3.70;99.90
21570;DHT22;57598;50.888;4.746;2023-04-02T22:45:36;3.60;99.90
21570;DHT22;57598;50.888;4.746;2023-04-02T22:48:04;3.60;99.90
21570;DHT22;57598;50.888;4.746;2023-04-02T22:50:31;3.60;99.90
21570;DHT22;57598;50.888;4.746;2023-04-02T22:52:59;3.60;99.90
21570;DHT22;57598;50.888;4.746;2023-04-02T22:55:26;3.60;99.90
21570;DHT22;57598;50.888;4.746;2023-04-02T22:57:53;3.50;99.90
21570;DHT22;57598;50.888;4.746;2023-04-02T23:00:20;3.50;99.90
21570;DHT22;57598;50.888;4.746;2023-04-02T23:02:47;3.60;99.90
21570;DHT22;57598;50.888;4.746;2023-04-02T23:05:15;3.50;99.90
21570;DHT22;57598;50.888;4.746;2023-04-02T23:07:42;3.50;99.90
21570;DHT22;57598;50.888;4.746;2023-04-02T23:10:10;3.50;99.90
21570;DHT22;57598;50.888;4.746;2023-04-02T23:12:38;3.40;99.90
21570;DHT22;57598;50.888;4.746;2023-04-02T23:15:06;3.40;99.90
21570;DHT22;57598;50.888;4.746;2023-04-02T23:17:33;3.40;99.90
21570;DHT22;57598;50.888;4.746;2023-04-02T23:20:02;3.30;99.90
21570;DHT22;57598;50.888;4.746;2023-04-02T23:22:29;3.40;99.90
21570;DHT22;57598;50.888;4.746;2023-04-02T23:24:56;3.40;99.90
21570;DHT22;57598;50.888;4.746;2023-04-02T23:27:25;3.30;99.90
21570;DHT22;57598;50.888;4.746;2023-04-02T23:29:52;3.20;99.90
21570;DHT22;57598;50.888;4.746;2023-04-02T23:32:19;3.20;99.90
21570;DHT22;57598;50.888;4.746;2023-04-02T23:34:46;3.20;99.90
21570;DHT22;57598;50.888;4.746;2023-04-02T23:37:13;3.20;99.90
21570;DHT22;57598;50.888;4.746;2023-04-02T23:39:41;3.20;99.90
21570;DHT22;57598;50.888;4.746;2023-04-02T23:42:09;3.20;99.90
21570;DHT22;57598;50.888;4.746;2023-04-02T23:44:38;3.20;99.90
21570;DHT22;57598;50.888;4.746;2023-04-02T23:47:05;3.30;99.90
21570;DHT22;57598;50.888;4.746;2023-04-02T23:49:32;3.20;99.90
21570;DHT22;57598;50.888;4.746;2023-04-02T23:51:59;3.10;99.90
21570;DHT22;57598;50.888;4.746;2023-04-02T23:54:26;3.10;99.90
21570;DHT22;57598;50.888;4.746;2023-04-02T23:56:53;3.10;99.90
21570;DHT22;57598;50.888;4.746;2023-04-02T23:59:20;3.00;99.90
